Time;durP1;ratioP1;P1;durP2;ratioP2;P2;SDS_P1;SDS_P2;PMS_P1;PMS_P2;Temp;Humidity;BMP_temperature;BMP_pressure;BME280_temperature;BME280_humidity;BME280_pressure;Samples;Min_cycle;Max_cycle;Signal;HPM_P1;HPM_P2
2022/04/13 00:00:28;;;;;;;9.88;2.28;;;12.60;99.90;;;;;;5081363;28;20104;-78
2022/04/13 00:02:56;;;;;;;7.63;1.90;;;12.60;99.90;;;;;;5078768;28;20040;-78
2022/04/13 00:05:22;;;;;;;4.18;2.20;;;12.60;99.90;;;;;;5076901;28;20044;-78
2022/04/13 00:07:48;;;;;;;12.05;2.63;;;12.60;99.90;;;;;;5061543;28;20063;-78
2022/04/13 00:10:14;;;;;;;9.13;2.75;;;12.50;99.90;;;;;;5066093;28;20060;-78
2022/04/13 00:12:41;;;;;;;7.57;3.10;;;12.60;99.90;;;;;;5080048;28;20059;-78
2022/04/13 00:15:08;;;;;;;7.32;2.17;;;12.60;99.90;;;;;;5075356;28;20035;-78
2022/04/13 00:17:36;;;;;;;8.93;2.42;;;12.70;99.90;;;;;;5064458;28;20383;-78
2022/04/13 00:20:04;;;;;;;10.77;3.15;;;12.60;99.90;;;;;;5075882;28;20052;-78
2022/04/13 00:22:30;;;;;;;9.88;2.75;;;12.60;99.90;;;;;;5081952;28;20020;-78
2022/04/13 00:24:55;;;;;;;8.95;2.08;;;12.60;99.90;;;;;;5060778;28;20119;-78
2022/04/13 00:27:21;;;;;;;6.85;2.40;;;12.60;99.90;;;;;;5069316;28;20052;-78
2022/04/13 00:29:47;;;;;;;5.55;2.45;;;12.60;99.90;;;;;;5074759;28;20069;-78
2022/04/13 00:32:13;;;;;;;7.57;2.80;;;12.60;99.90;;;;;;5064150;28;20032;-78
2022/04/13 00:34:39;;;;;;;6.82;2.63;;;12.60;99.90;;;;;;5065805;28;20560;-78
2022/04/13 00:37:05;;;;;;;8.65;2.83;;;12.60;99.90;;;;;;5070478;28;20033;-78
2022/04/13 00:39:31;;;;;;;12.02;3.50;;;12.50;99.90;;;;;;5087219;28;20020;-78
2022/04/13 00:42:04;;;;;;;12.07;2.90;;;12.60;99.90;;;;;;5065685;28;20021;-78
2022/04/13 00:44:30;;;;;;;7.97;2.50;;;12.50;99.90;;;;;;5071563;28;20029;-78
2022/04/13 00:46:57;;;;;;;10.52;3.60;;;12.50;99.90;;;;;;5063656;28;20020;-78
2022/04/13 00:49:25;;;;;;;13.10;2.78;;;12.50;99.90;;;;;;5063329;28;20071;-78
2022/04/13 00:51:51;;;;;;;8.90;3.20;;;12.50;99.90;;;;;;5073040;28;20051;-78
2022/04/13 00:54:19;;;;;;;14.07;3.15;;;12.40;99.90;;;;;;5082411;28;20079;-78
2022/04/13 00:56:48;;;;;;;10.27;2.97;;;12.50;99.90;;;;;;5070232;28;20565;-78
2022/04/13 00:59:15;;;;;;;7.88;2.60;;;12.50;99.90;;;;;;5075381;28;20024;-78
2022/04/13 01:01:48;;;;;;;13.30;3.45;;;12.40;99.90;;;;;;5080365;28;20103;-78
2022/04/13 01:04:16;;;;;;;7.28;3.05;;;12.50;99.90;;;;;;5068907;28;20061;-78
2022/04/13 01:06:43;;;;;;;14.02;3.53;;;12.40;99.90;;;;;;5083379;28;20046;-78
2022/04/13 01:09:10;;;;;;;12.20;2.35;;;12.40;99.90;;;;;;5076624;28;20025;-78
2022/04/13 01:11:36;;;;;;;14.57;3.50;;;12.40;99.90;;;;;;5072428;28;20134;-78
2022/04/13 01:14:01;;;;;;;11.88;3.40;;;12.40;99.90;;;;;;5078296;28;20556;-78
2022/04/13 01:16:27;;;;;;;9.95;3.33;;;12.30;99.90;;;;;;5062821;28;20016;-78
2022/04/13 01:18:54;;;;;;;11.40;3.58;;;12.20;99.90;;;;;;5087367;28;20383;-78
2022/04/13 01:21:47;;;;;;;13.35;3.58;;;12.20;99.90;;;;;;5085463;28;20058;-78
2022/04/13 01:24:15;;;;;;;8.38;2.88;;;12.20;99.90;;;;;;5079990;28;20044;-77
2022/04/13 01:26:41;;;;;;;11.82;3.28;;;12.10;99.90;;;;;;5083011;28;20031;-77
2022/04/13 01:29:07;;;;;;;12.65;2.75;;;12.10;99.90;;;;;;5077962;28;20028;-77
2022/04/13 01:31:33;;;;;;;10.80;2.40;;;12.10;99.90;;;;;;5082007;28;20020;-78
2022/04/13 01:33:59;;;;;;;10.10;2.35;;;12.10;99.90;;;;;;5078485;28;20023;-78
2022/04/13 01:36:29;;;;;;;8.63;3.05;;;12.10;99.90;;;;;;5065650;28;20112;-78
2022/04/13 01:38:54;;;;;;;9.15;3.22;;;12.10;99.90;;;;;;5079194;28;20031;-78
2022/04/13 01:41:20;;;;;;;5.30;2.40;;;12.10;99.90;;;;;;5077512;28;20020;-78
2022/04/13 01:43:46;;;;;;;8.23;2.78;;;12.10;99.90;;;;;;5076710;28;20490;-78
2022/04/13 01:46:12;;;;;;;9.43;2.75;;;12.20;99.90;;;;;;5077350;28;20028;-78
2022/04/13 01:48:37;;;;;;;10.02;2.60;;;12.10;99.90;;;;;;5077697;28;20032;-78
2022/04/13 01:51:03;;;;;;;8.25;3.03;;;12.10;99.90;;;;;;5081535;28;20501;-78
2022/04/13 01:53:29;;;;;;;10.35;2.63;;;12.10;99.90;;;;;;5079360;28;20024;-78
2022/04/13 01:55:55;;;;;;;7.90;3.15;;;12.20;99.90;;;;;;5077971;28;20071;-78
2022/04/13 01:58:24;;;;;;;4.70;2.65;;;12.20;99.90;;;;;;5082225;28;20522;-78
2022/04/13 02:00:58;;;;;;;9.95;2.42;;;12.20;99.90;;;;;;5074020;28;20020;-78
2022/04/13 02:03:25;;;;;;;4.97;2.10;;;12.10;99.90;;;;;;5082686;28;20028;-78
2022/04/13 02:05:52;;;;;;;7.05;2.65;;;12.20;99.90;;;;;;5081812;28;20115;-78
2022/04/13 02:08:22;;;;;;;10.77;2.33;;;12.10;99.90;;;;;;5074342;28;20028;-79
2022/04/13 02:10:48;;;;;;;12.50;3.13;;;12.20;99.90;;;;;;5079106;28;20025;-79
2022/04/13 02:13:14;;;;;;;6.22;2.63;;;12.00;99.90;;;;;;5076009;28;20498;-79
2022/04/13 02:15:40;;;;;;;11.23;3.30;;;12.10;99.90;;;;;;5088170;28;20028;-79
2022/04/13 02:18:06;;;;;;;7.32;2.17;;;12.10;99.90;;;;;;5086207;28;20024;-79
2022/04/13 02:20:32;;;;;;;8.02;2.38;;;12.10;99.90;;;;;;5078866;28;20021;-79
2022/04/13 02:22:58;;;;;;;13.10;3.63;;;12.00;99.90;;;;;;5077076;28;20036;-79
2022/04/13 02:25:24;;;;;;;15.73;3.15;;;12.10;99.90;;;;;;5074285;28;20024;-79
2022/04/13 02:27:50;;;;;;;12.00;2.67;;;12.00;99.90;;;;;;5083246;28;20035;-79
2022/04/13 02:30:16;;;;;;;8.80;2.78;;;12.10;99.90;;;;;;5085510;28;20024;-79
2022/04/13 02:32:45;;;;;;;8.60;3.75;;;12.10;99.90;;;;;;5079562;28;20452;-79
2022/04/13 02:35:13;;;;;;;9.70;2.60;;;12.10;99.90;;;;;;5082215;28;20053;-79
2022/04/13 02:37:40;;;;;;;10.35;2.40;;;12.10;99.90;;;;;;5085708;28;20058;-79
2022/04/13 02:40:09;;;;;;;10.05;2.00;;;12.10;99.90;;;;;;5072937;28;20036;-79
2022/04/13 02:42:36;;;;;;;10.05;2.88;;;12.00;99.90;;;;;;5081515;28;20065;-79
2022/04/13 02:45:03;;;;;;;8.57;2.50;;;12.00;99.90;;;;;;5083009;28;20051;-79
2022/04/13 02:47:31;;;;;;;8.35;2.67;;;12.00;99.90;;;;;;5072711;28;20028;-79
2022/04/13 02:49:57;;;;;;;9.68;2.50;;;12.10;99.90;;;;;;5065552;28;20038;-78
2022/04/13 02:52:25;;;;;;;8.73;2.13;;;12.10;99.90;;;;;;5080456;28;20033;-78
2022/04/13 02:54:51;;;;;;;7.93;2.83;;;12.10;99.90;;;;;;5083438;28;20048;-79
2022/04/13 02:57:17;;;;;;;7.10;2.35;;;12.00;99.90;;;;;;5083304;28;20028;-78
2022/04/13 02:59:46;;;;;;;7.20;2.90;;;12.10;99.90;;;;;;5077275;28;20517;-78
2022/04/13 03:02:14;;;;;;;8.88;2.85;;;12.00;99.90;;;;;;5067961;28;20448;-78
2022/04/13 03:04:43;;;;;;;9.75;2.75;;;12.10;99.90;;;;;;5077344;28;20444;-78
2022/04/13 03:07:13;;;;;;;9.27;3.22;;;12.00;99.90;;;;;;5079072;28;20178;-78
2022/04/13 03:09:39;;;;;;;10.85;2.58;;;12.00;99.90;;;;;;5084343;28;20024;-78
2022/04/13 03:12:06;;;;;;;7.60;2.60;;;12.10;99.90;;;;;;5083241;28;20032;-78
2022/04/13 03:14:33;;;;;;;6.38;1.90;;;12.10;99.90;;;;;;5082077;28;20516;-79
2022/04/13 03:16:59;;;;;;;7.18;2.70;;;12.10;99.90;;;;;;5083205;28;20024;-79
2022/04/13 03:19:24;;;;;;;9.63;2.88;;;12.10;99.90;;;;;;5073620;28;20130;-79
2022/04/13 03:21:51;;;;;;;5.45;2.17;;;12.10;99.90;;;;;;5078539;28;20025;-79
2022/04/13 03:24:26;;;;;;;3.53;1.80;;;12.10;99.90;;;;;;5075861;28;20472;-78
2022/04/13 03:26:53;;;;;;;4.65;1.77;;;12.00;99.90;;;;;;5083956;28;20051;-79
2022/04/13 03:29:19;;;;;;;10.30;2.50;;;12.10;99.90;;;;;;5079830;28;20050;-79
2022/04/13 03:31:46;;;;;;;6.18;2.72;;;12.10;99.90;;;;;;5081747;28;20020;-79
2022/04/13 03:34:12;;;;;;;4.85;2.28;;;12.20;99.90;;;;;;5080929;28;20078;-80
2022/04/13 03:36:40;;;;;;;5.13;2.55;;;12.10;99.90;;;;;;5089478;28;20040;-80
2022/04/13 03:39:07;;;;;;;6.22;2.00;;;12.10;99.90;;;;;;5083396;28;20031;-80
2022/04/13 03:41:36;;;;;;;4.47;1.95;;;12.10;99.90;;;;;;5087341;28;20073;-80
2022/04/13 03:44:03;;;;;;;5.57;1.88;;;12.10;99.90;;;;;;5075000;28;20024;-80
2022/04/13 03:46:29;;;;;;;6.55;2.03;;;12.10;99.90;;;;;;5062397;28;20098;-79
2022/04/13 03:48:55;;;;;;;6.60;2.13;;;12.10;99.90;;;;;;5083171;28;20035;-79
2022/04/13 03:51:20;;;;;;;6.95;2.08;;;12.10;99.90;;;;;;5084755;28;20032;-79
2022/04/13 03:53:46;;;;;;;6.43;1.50;;;12.10;99.90;;;;;;5086907;28;20505;-78
2022/04/13 03:56:12;;;;;;;7.78;2.22;;;12.10;99.90;;;;;;5077903;28;20028;-79
2022/04/13 03:58:40;;;;;;;5.75;2.50;;;12.00;99.90;;;;;;5059389;28;20024;-79
2022/04/13 04:01:06;;;;;;;4.10;1.80;;;12.00;99.90;;;;;;5075666;28;20012;-79
2022/04/13 04:03:32;;;;;;;2.15;1.33;;;12.10;99.90;;;;;;5081378;28;20060;-79
2022/04/13 04:05:57;;;;;;;6.93;2.00;;;12.10;99.90;;;;;;5079827;28;20544;-79
2022/04/13 04:08:25;;;;;;;4.80;1.98;;;12.10;99.90;;;;;;5077737;28;20032;-79
2022/04/13 04:10:52;;;;;;;9.80;1.83;;;12.10;99.90;;;;;;5079774;28;20098;-79
2022/04/13 04:13:18;;;;;;;8.38;2.30;;;12.10;99.90;;;;;;5082053;28;20032;-79
2022/04/13 04:15:43;;;;;;;6.30;2.53;;;12.00;99.90;;;;;;5088604;28;20034;-79
2022/04/13 04:18:09;;;;;;;4.20;2.08;;;12.00;99.90;;;;;;5077349;28;20021;-79
2022/04/13 04:20:35;;;;;;;2.95;1.60;;;12.00;99.90;;;;;;5078445;28;20523;-79
2022/04/13 04:23:00;;;;;;;5.53;1.65;;;12.10;99.90;;;;;;5072038;28;20026;-79
2022/04/13 04:25:26;;;;;;;4.20;1.48;;;12.10;99.90;;;;;;5073939;28;20064;-78
2022/04/13 04:27:52;;;;;;;5.60;1.80;;;12.00;99.90;;;;;;5080552;28;20033;-79
2022/04/13 04:30:17;;;;;;;3.05;1.63;;;11.90;99.90;;;;;;5082555;28;20128;-79
2022/04/13 04:32:43;;;;;;;3.25;1.73;;;12.00;99.90;;;;;;5084362;28;20059;-79
2022/04/13 04:35:09;;;;;;;3.08;1.70;;;12.00;99.90;;;;;;5077495;28;20028;-79
2022/04/13 04:37:35;;;;;;;4.82;2.20;;;12.00;99.90;;;;;;5085242;28;20047;-80
2022/04/13 04:40:01;;;;;;;5.25;1.92;;;11.90;99.90;;;;;;5078823;28;20028;-79
2022/04/13 04:42:27;;;;;;;4.93;1.88;;;11.90;99.90;;;;;;5081316;28;20502;-79
2022/04/13 04:44:59;;;;;;;5.55;1.83;;;11.90;99.90;;;;;;5078714;28;20114;-77
2022/04/13 04:47:25;;;;;;;5.68;1.67;;;12.00;99.90;;;;;;5072210;28;20501;-77
2022/04/13 04:49:51;;;;;;;2.30;1.58;;;11.90;99.90;;;;;;5082755;28;20028;-77
2022/04/13 04:52:17;;;;;;;5.38;1.60;;;11.80;99.90;;;;;;5061879;28;20032;-77
2022/04/13 04:54:43;;;;;;;4.32;1.45;;;11.90;99.90;;;;;;5092527;28;20042;-77
2022/04/13 04:57:08;;;;;;;3.60;1.55;;;12.00;99.90;;;;;;5074732;28;20518;-77
2022/04/13 04:59:35;;;;;;;2.65;1.30;;;12.00;99.90;;;;;;5073289;28;20028;-76
2022/04/13 05:02:01;;;;;;;2.92;1.52;;;11.90;99.90;;;;;;5079364;28;20028;-77
2022/04/13 05:04:26;;;;;;;3.17;1.23;;;12.00;99.90;;;;;;5090642;28;20028;-77
2022/04/13 05:06:52;;;;;;;4.30;1.88;;;11.90;99.90;;;;;;5077865;28;20020;-76
2022/04/13 05:09:19;;;;;;;8.88;2.35;;;11.90;99.90;;;;;;5084349;28;20055;-76
2022/04/13 05:11:45;;;;;;;5.80;1.65;;;11.90;99.90;;;;;;5080157;28;20055;-76
2022/04/13 05:14:11;;;;;;;6.35;2.05;;;11.90;99.90;;;;;;5089417;28;20093;-76
2022/04/13 05:16:37;;;;;;;3.67;1.65;;;11.90;99.90;;;;;;5087641;28;20489;-75
2022/04/13 05:19:02;;;;;;;6.38;1.88;;;11.80;99.90;;;;;;5077223;28;20490;-76
2022/04/13 05:21:28;;;;;;;5.78;1.75;;;11.90;99.90;;;;;;5084326;28;20070;-76
2022/04/13 05:23:54;;;;;;;4.07;2.10;;;11.90;99.90;;;;;;5081489;28;20567;-76
2022/04/13 05:26:20;;;;;;;5.97;1.83;;;11.90;99.90;;;;;;5071011;28;20411;-76
2022/04/13 05:28:47;;;;;;;2.92;1.60;;;11.90;99.90;;;;;;5090706;28;20020;-76
2022/04/13 05:31:13;;;;;;;3.25;1.65;;;11.90;99.90;;;;;;5084696;28;20029;-76
2022/04/13 05:33:39;;;;;;;5.07;2.28;;;11.90;99.90;;;;;;5090743;28;20028;-76
2022/04/13 05:36:05;;;;;;;4.57;2.00;;;11.90;99.90;;;;;;5075402;28;20456;-76
2022/04/13 05:38:31;;;;;;;6.07;2.13;;;11.90;99.90;;;;;;5080301;28;20589;-75
2022/04/13 05:40:57;;;;;;;3.05;1.42;;;11.90;99.90;;;;;;5078786;28;20020;-75
2022/04/13 05:43:22;;;;;;;3.83;1.70;;;11.90;99.90;;;;;;5080571;28;20482;-76
2022/04/13 05:45:48;;;;;;;3.38;2.17;;;11.90;99.90;;;;;;5086084;28;20507;-76
2022/04/13 05:48:14;;;;;;;4.45;2.20;;;11.90;99.90;;;;;;5084759;28;20081;-75
2022/04/13 05:50:39;;;;;;;2.92;1.60;;;11.90;99.90;;;;;;5072730;28;20510;-76
2022/04/13 05:53:05;;;;;;;4.40;1.73;;;11.90;99.90;;;;;;5068009;28;20168;-76
2022/04/13 05:55:31;;;;;;;11.77;3.00;;;12.00;99.90;;;;;;5056460;28;20423;-76
2022/04/13 05:57:57;;;;;;;6.30;2.03;;;12.00;99.90;;;;;;5079297;28;20043;-76
2022/04/13 06:00:23;;;;;;;8.60;2.38;;;12.00;99.90;;;;;;5083060;28;20028;-76
2022/04/13 06:02:49;;;;;;;7.78;2.35;;;12.00;99.90;;;;;;5083589;28;20132;-76
2022/04/13 06:05:15;;;;;;;3.40;1.80;;;12.10;99.90;;;;;;5078745;28;20028;-76
2022/04/13 06:07:42;;;;;;;4.40;1.90;;;12.00;99.90;;;;;;5079990;28;20744;-76
2022/04/13 06:10:08;;;;;;;3.88;1.83;;;12.00;99.90;;;;;;5089514;28;20421;-76
2022/04/13 06:12:34;;;;;;;3.00;1.70;;;12.10;99.90;;;;;;5090872;28;20024;-76
2022/04/13 06:15:11;;;;;;;5.13;2.05;;;12.10;99.90;;;;;;5077094;28;20078;-76
2022/04/13 06:17:38;;;;;;;5.32;1.88;;;12.10;99.90;;;;;;5080177;28;20448;-76
2022/04/13 06:20:05;;;;;;;3.13;1.63;;;12.10;99.90;;;;;;5080736;28;20047;-76
2022/04/13 06:22:42;;;;;;;5.22;1.83;;;12.10;99.90;;;;;;5075337;28;20103;-77
2022/04/13 06:25:09;;;;;;;5.38;2.13;;;12.10;99.90;;;;;;5061992;28;20028;-76
2022/04/13 06:27:35;;;;;;;4.78;1.83;;;12.10;99.90;;;;;;5074674;28;20029;-76
2022/04/13 06:30:01;;;;;;;6.47;2.90;;;12.10;99.90;;;;;;5080171;28;20065;-76
2022/04/13 06:32:38;;;;;;;5.13;2.30;;;12.10;99.90;;;;;;5076482;28;20057;-76
2022/04/13 06:35:06;;;;;;;3.35;1.95;;;12.10;99.90;;;;;;5086733;28;20028;-77
2022/04/13 06:37:32;;;;;;;5.38;1.92;;;12.10;99.90;;;;;;5070501;28;20051;-76
2022/04/13 06:39:57;;;;;;;3.58;1.83;;;12.10;99.90;;;;;;5081103;28;20502;-76
2022/04/13 06:42:23;;;;;;;5.32;2.17;;;12.20;99.90;;;;;;5079523;28;20525;-77
2022/04/13 06:44:52;;;;;;;3.72;2.00;;;12.20;99.90;;;;;;5077985;28;20032;-76
2022/04/13 06:47:18;;;;;;;7.53;2.10;;;12.20;99.90;;;;;;5079081;28;20028;-76
2022/04/13 06:49:46;;;;;;;8.15;2.75;;;12.10;99.90;;;;;;5083622;28;20044;-76
2022/04/13 06:52:12;;;;;;;9.35;2.88;;;12.10;99.90;;;;;;5086479;28;20125;-76
2022/04/13 06:54:38;;;;;;;9.65;3.05;;;12.10;99.90;;;;;;5078971;28;20044;-76
2022/04/13 06:57:03;;;;;;;5.53;2.80;;;12.10;99.90;;;;;;5069647;28;20021;-76
2022/04/13 06:59:29;;;;;;;4.60;2.38;;;12.10;99.90;;;;;;5071488;28;20012;-76
2022/04/13 07:01:55;;;;;;;5.97;2.45;;;12.10;99.90;;;;;;5073574;28;20528;-77
2022/04/13 07:04:21;;;;;;;5.45;2.25;;;12.20;99.90;;;;;;5079719;28;20032;-77
2022/04/13 07:06:46;;;;;;;6.75;2.50;;;12.20;99.90;;;;;;5080203;28;20025;-77
2022/04/13 07:09:12;;;;;;;6.60;2.05;;;12.20;99.90;;;;;;5083787;28;20122;-77
2022/04/13 07:11:37;;;;;;;7.38;2.53;;;12.20;99.90;;;;;;5084051;28;20524;-76
2022/04/13 07:14:03;;;;;;;7.30;2.28;;;12.20;99.90;;;;;;5081530;28;20103;-77
2022/04/13 07:16:29;;;;;;;8.00;2.33;;;12.20;99.90;;;;;;5070095;28;20028;-76
2022/04/13 07:18:55;;;;;;;7.50;2.03;;;12.20;99.90;;;;;;5075991;28;20113;-77
2022/04/13 07:21:20;;;;;;;4.78;1.83;;;12.20;99.90;;;;;;5081845;28;20029;-76
2022/04/13 07:23:46;;;;;;;4.55;2.05;;;12.20;99.90;;;;;;5071187;28;20020;-76
2022/04/13 07:26:12;;;;;;;5.90;2.60;;;12.10;99.90;;;;;;5076812;28;20024;-76
2022/04/13 07:28:38;;;;;;;8.70;3.38;;;12.10;99.90;;;;;;5079340;28;20040;-76
2022/04/13 07:31:05;;;;;;;5.60;2.40;;;12.10;99.90;;;;;;5089901;28;20028;-77
2022/04/13 07:33:30;;;;;;;5.75;2.30;;;12.20;99.90;;;;;;5077616;28;20032;-76
2022/04/13 07:35:56;;;;;;;6.32;2.30;;;12.20;99.90;;;;;;5080143;28;20028;-76
2022/04/13 07:38:22;;;;;;;7.10;2.10;;;12.20;99.90;;;;;;5078053;28;20034;-75
2022/04/13 07:40:48;;;;;;;4.47;2.60;;;12.20;99.90;;;;;;5077357;28;20051;-75
2022/04/13 07:43:15;;;;;;;8.77;3.20;;;12.20;99.90;;;;;;5072621;28;20505;-75
2022/04/13 07:45:41;;;;;;;6.25;2.22;;;12.20;99.90;;;;;;5085781;28;20111;-75
2022/04/13 07:48:07;;;;;;;15.35;3.63;;;12.10;99.90;;;;;;5080028;28;20056;-76
2022/04/13 07:50:33;;;;;;;11.23;3.13;;;12.10;99.90;;;;;;5077939;28;20063;-75
2022/04/13 07:52:59;;;;;;;8.10;2.33;;;12.00;99.90;;;;;;5072104;28;20492;-75
2022/04/13 07:55:25;;;;;;;10.70;3.40;;;12.00;99.90;;;;;;5074256;28;20046;-75
2022/04/13 07:57:50;;;;;;;5.15;2.60;;;12.10;99.90;;;;;;5080468;28;20028;-76
2022/04/13 08:00:16;;;;;;;7.60;3.03;;;12.10;99.90;;;;;;5082200;28;20039;-76
2022/04/13 08:02:43;;;;;;;10.15;3.05;;;12.10;99.90;;;;;;5081275;28;20035;-75
2022/04/13 08:05:12;;;;;;;11.32;3.47;;;12.20;99.90;;;;;;5077713;28;20108;-75
2022/04/13 08:07:39;;;;;;;7.45;3.22;;;12.00;99.90;;;;;;5082604;28;20073;-76
2022/04/13 08:10:05;;;;;;;6.22;2.88;;;12.10;99.90;;;;;;5085100;28;20044;-76
2022/04/13 08:12:31;;;;;;;7.32;2.40;;;12.20;99.90;;;;;;5081024;28;20028;-77
2022/04/13 08:14:58;;;;;;;7.25;3.28;;;12.20;99.90;;;;;;5079548;28;20029;-76
2022/04/13 08:17:25;;;;;;;9.80;2.92;;;12.30;99.90;;;;;;5081416;28;20043;-76
2022/04/13 08:19:51;;;;;;;9.90;2.92;;;12.40;99.90;;;;;;5079237;28;20029;-76
2022/04/13 08:22:25;;;;;;;5.95;2.70;;;12.40;99.90;;;;;;5081263;28;20047;-76
2022/04/13 08:24:51;;;;;;;5.53;2.63;;;12.40;99.90;;;;;;5084635;28;20020;-76
2022/04/13 08:27:18;;;;;;;10.20;2.97;;;12.40;99.90;;;;;;5086675;28;20039;-76
2022/04/13 08:29:46;;;;;;;8.68;3.17;;;12.50;99.90;;;;;;5082608;28;20039;-76
2022/04/13 08:32:12;;;;;;;5.60;3.33;;;12.50;99.90;;;;;;5088437;28;20028;-76
2022/04/13 08:34:38;;;;;;;9.05;2.67;;;12.50;99.90;;;;;;5075215;28;20024;-76
2022/04/13 08:37:04;;;;;;;6.40;2.92;;;12.50;99.90;;;;;;5077993;28;20111;-76
2022/04/13 08:39:30;;;;;;;6.53;3.03;;;12.40;99.90;;;;;;5087410;28;20252;-76
2022/04/13 08:42:06;;;;;;;8.43;2.97;;;12.40;99.90;;;;;;5087628;28;20031;-76
2022/04/13 08:44:48;;;;;;;7.75;2.92;;;12.40;99.90;;;;;;5066064;28;20028;-76
2022/04/13 08:47:20;;;;;;;6.15;2.35;;;12.50;99.90;;;;;;5076265;28;20020;-76
2022/04/13 08:49:50;;;;;;;7.97;2.58;;;12.60;99.90;;;;;;5074654;28;20047;-77
2022/04/13 08:52:25;;;;;;;7.72;3.10;;;12.60;99.90;;;;;;5075185;28;20029;-76
2022/04/13 08:55:11;;;;;;;9.52;3.25;;;12.50;99.90;;;;;;5064047;28;20067;-77
2022/04/13 08:57:48;;;;;;;10.52;3.10;;;12.50;99.90;;;;;;5080043;28;20032;-77
2022/04/13 09:00:19;;;;;;;10.85;3.58;;;12.60;99.90;;;;;;5085218;28;20103;-77
2022/04/13 09:02:47;;;;;;;9.57;3.70;;;12.60;99.90;;;;;;5078415;28;20055;-76
2022/04/13 09:05:19;;;;;;;10.05;3.90;;;12.50;99.90;;;;;;5081010;28;20138;-76
2022/04/13 09:08:02;;;;;;;7.72;3.28;;;12.60;99.90;;;;;;5082969;28;20115;-76
2022/04/13 09:10:30;;;;;;;9.32;3.10;;;12.60;99.90;;;;;;5072851;28;20040;-76
2022/04/13 09:12:56;;;;;;;4.38;2.35;;;12.60;99.90;;;;;;5078032;28;20032;-76
2022/04/13 09:15:23;;;;;;;12.38;3.90;;;12.70;99.90;;;;;;5081843;28;20051;-77
2022/04/13 09:17:50;;;;;;;13.88;3.10;;;12.70;99.90;;;;;;5078642;28;20020;-76
2022/04/13 09:20:16;;;;;;;12.38;3.13;;;12.70;99.90;;;;;;5077384;28;20524;-76
2022/04/13 09:22:43;;;;;;;7.03;2.58;;;12.60;99.90;;;;;;5081293;28;20456;-76
2022/04/13 09:25:10;;;;;;;10.13;3.63;;;12.80;99.90;;;;;;5082447;28;20029;-76
2022/04/13 09:27:37;;;;;;;11.30;3.50;;;12.70;99.90;;;;;;5089920;28;20032;-75
2022/04/13 09:30:04;;;;;;;7.25;3.22;;;12.80;99.90;;;;;;5078118;28;20017;-75
2022/04/13 09:32:31;;;;;;;8.50;3.03;;;12.80;99.90;;;;;;5070225;28;20029;-76
2022/04/13 09:34:57;;;;;;;6.25;2.70;;;12.90;99.90;;;;;;5077506;28;20020;-76
2022/04/13 09:37:24;;;;;;;6.35;3.53;;;13.00;99.90;;;;;;5078925;28;20024;-76
2022/04/13 09:39:50;;;;;;;9.25;2.88;;;12.90;99.90;;;;;;5078569;28;20052;-76
2022/04/13 09:42:16;;;;;;;9.75;2.88;;;12.90;99.90;;;;;;5085718;28;20078;-76
2022/04/13 09:44:42;;;;;;;9.63;2.80;;;12.90;99.90;;;;;;5088449;28;20028;-76
2022/04/13 09:47:12;;;;;;;8.93;2.40;;;12.90;99.90;;;;;;5081651;28;20085;-75
2022/04/13 09:49:53;;;;;;;8.00;3.78;;;12.90;99.90;;;;;;5079209;28;20035;-76
2022/04/13 09:52:26;;;;;;;5.32;2.75;;;12.90;99.90;;;;;;5060885;28;20020;-75
2022/04/13 09:54:52;;;;;;;11.57;3.13;;;12.80;99.90;;;;;;5059234;28;20057;-75
2022/04/13 09:57:22;;;;;;;16.17;3.72;;;12.60;99.90;;;;;;5083588;28;20029;-75
2022/04/13 10:00:00;;;;;;;9.32;3.60;;;12.70;99.90;;;;;;5084097;28;20024;-75
2022/04/13 10:02:40;;;;;;;10.82;3.58;;;12.90;99.90;;;;;;5068492;28;20027;-75
2022/04/13 10:05:08;;;;;;;6.85;3.33;;;12.90;99.90;;;;;;5076433;28;20103;-76
2022/04/13 10:07:35;;;;;;;7.55;3.10;;;12.90;99.90;;;;;;5058414;28;20028;-75
2022/04/13 10:10:02;;;;;;;10.73;3.38;;;12.90;99.90;;;;;;5070934;28;20029;-75
2022/04/13 10:12:28;;;;;;;9.98;2.95;;;13.00;99.90;;;;;;5082299;28;20029;-75
2022/04/13 10:15:07;;;;;;;13.15;3.80;;;13.00;99.90;;;;;;5082173;28;20035;-75
2022/04/13 10:17:33;;;;;;;7.80;3.05;;;12.90;99.90;;;;;;5078050;28;20024;-75
2022/04/13 10:19:59;;;;;;;8.52;3.33;;;13.00;99.90;;;;;;5070868;28;20009;-75
2022/04/13 10:22:25;;;;;;;11.40;3.40;;;13.00;99.90;;;;;;5088898;28;20076;-75
2022/04/13 10:24:51;;;;;;;6.57;2.95;;;13.00;99.90;;;;;;5069191;28;20039;-75
2022/04/13 10:27:24;;;;;;;6.97;3.10;;;13.20;99.90;;;;;;5076885;28;20029;-75
2022/04/13 10:29:50;;;;;;;8.82;3.10;;;13.20;99.90;;;;;;5081102;28;20028;-76
2022/04/13 10:32:22;;;;;;;8.00;2.83;;;13.00;99.90;;;;;;5088861;28;20118;-76
2022/04/13 10:34:53;;;;;;;7.50;2.85;;;13.00;99.90;;;;;;5075344;28;20106;-75
2022/04/13 10:37:20;;;;;;;14.00;3.87;;;12.90;99.90;;;;;;5079687;28;20093;-76
2022/04/13 10:39:48;;;;;;;13.15;3.53;;;12.70;99.90;;;;;;5077885;28;20029;-75
2022/04/13 10:42:15;;;;;;;8.43;2.97;;;12.60;99.90;;;;;;5083151;28;20024;-75
2022/04/13 10:44:51;;;;;;;11.45;4.20;;;12.70;99.90;;;;;;5077295;28;20024;-75
2022/04/13 10:47:30;;;;;;;11.73;3.97;;;12.70;99.90;;;;;;5080401;28;20186;-75
2022/04/13 10:50:00;;;;;;;5.57;2.80;;;12.70;99.90;;;;;;5076984;28;20024;-75
2022/04/13 10:53:09;;;;;;;12.07;2.87;;;12.60;99.90;;;;;;5058058;28;20052;-76
2022/04/13 10:55:35;;;;;;;8.65;3.15;;;12.50;99.90;;;;;;5066985;28;20127;-76
2022/04/13 10:58:18;;;;;;;11.55;3.45;;;12.50;99.90;;;;;;5080861;28;20070;-76
2022/04/13 11:00:49;;;;;;;7.78;3.05;;;12.80;99.90;;;;;;5056232;28;20618;-75
2022/04/13 11:03:16;;;;;;;12.03;3.70;;;12.60;99.90;;;;;;5080935;28;20024;-76
2022/04/13 11:05:42;;;;;;;9.02;3.47;;;12.80;99.90;;;;;;5074722;28;20057;-76
2022/04/13 11:08:31;;;;;;;12.35;3.13;;;12.70;99.90;;;;;;5068502;28;20051;-75
2022/04/13 11:10:57;;;;;;;10.48;3.38;;;12.80;99.90;;;;;;5020207;28;20114;-76
2022/04/13 11:13:23;;;;;;;10.13;4.00;;;12.90;99.90;;;;;;5034621;28;20099;-75
2022/04/13 11:15:51;;;;;;;12.57;4.38;;;12.80;99.90;;;;;;5040589;28;20037;-76
2022/04/13 11:18:20;;;;;;;6.63;3.03;;;12.70;99.90;;;;;;5038743;28;20037;-76
2022/04/13 11:21:04;;;;;;;8.27;3.17;;;13.00;99.90;;;;;;5033276;28;20025;-76
2022/04/13 11:23:47;;;;;;;6.70;3.30;;;13.20;99.90;;;;;;5033548;28;20060;-76
2022/04/13 11:26:13;;;;;;;13.23;3.38;;;13.20;99.90;;;;;;5030542;28;20111;-75
2022/04/13 11:28:38;;;;;;;8.63;2.97;;;13.20;99.90;;;;;;5028505;28;20191;-76
2022/04/13 11:31:08;;;;;;;9.50;3.15;;;12.90;99.90;;;;;;5017080;28;20022;-76
2022/04/13 11:33:51;;;;;;;11.63;4.45;;;12.90;99.90;;;;;;5022235;28;20040;-76
2022/04/13 11:36:19;;;;;;;12.00;3.50;;;13.00;99.90;;;;;;5033775;28;20039;-76
2022/04/13 11:38:52;;;;;;;9.20;3.45;;;12.80;99.90;;;;;;5027881;28;20052;-76
2022/04/13 11:41:19;;;;;;;8.23;3.25;;;12.70;99.90;;;;;;5028345;28;20040;-76
2022/04/13 11:43:45;;;;;;;10.57;2.92;;;12.80;99.90;;;;;;5040631;28;20041;-76
2022/04/13 11:46:39;;;;;;;9.45;3.28;;;12.90;99.90;;;;;;5043079;28;20061;-76
2022/04/13 11:49:12;;;;;;;15.98;4.50;;;12.70;99.90;;;;;;5066799;28;20139;-76
2022/04/13 11:51:38;;;;;;;11.88;3.53;;;12.80;99.90;;;;;;5081086;28;20032;-76
2022/04/13 11:54:13;;;;;;;13.07;3.63;;;12.60;99.90;;;;;;5069776;28;20047;-77
2022/04/13 11:56:52;;;;;;;6.80;2.78;;;12.70;99.90;;;;;;5074482;28;20051;-77
2022/04/13 11:59:45;;;;;;;6.25;3.08;;;12.90;99.90;;;;;;5074950;28;20074;-77
2022/04/13 12:02:13;;;;;;;8.65;3.58;;;12.80;99.90;;;;;;5079234;28;20016;-76
2022/04/13 12:04:38;;;;;;;7.05;3.38;;;12.70;99.90;;;;;;5083341;28;20035;-77
2022/04/13 12:07:08;;;;;;;9.68;3.50;;;12.80;99.90;;;;;;5072420;28;20024;-77
2022/04/13 12:09:34;;;;;;;10.45;3.25;;;12.90;99.90;;;;;;5065578;28;20117;-77
2022/04/13 12:12:02;;;;;;;11.10;3.55;;;12.80;99.90;;;;;;5076616;28;20020;-77
2022/04/13 12:14:32;;;;;;;11.32;3.70;;;12.80;99.90;;;;;;5077088;28;20095;-76
2022/04/13 12:16:59;;;;;;;4.45;2.45;;;12.80;99.90;;;;;;5085908;28;20032;-77
2022/04/13 12:19:36;;;;;;;9.45;3.25;;;13.00;99.90;;;;;;5069875;28;20687;-77
2022/04/13 12:22:16;;;;;;;9.30;4.05;;;12.90;99.90;;;;;;5075872;28;20028;-77
2022/04/13 12:24:58;;;;;;;12.85;4.07;;;12.70;99.90;;;;;;5063028;28;20126;-77
2022/04/13 12:27:24;;;;;;;9.15;3.45;;;12.90;99.90;;;;;;5076336;28;20031;-76
2022/04/13 12:29:50;;;;;;;11.07;3.75;;;12.80;99.90;;;;;;5075981;28;20024;-77
2022/04/13 12:32:19;;;;;;;5.15;2.95;;;12.70;99.90;;;;;;5076131;28;20554;-77
2022/04/13 12:34:45;;;;;;;6.85;3.08;;;12.90;99.90;;;;;;5077249;28;20027;-77
2022/04/13 12:37:11;;;;;;;9.38;3.30;;;13.00;99.90;;;;;;5088305;28;20044;-77
2022/04/13 12:39:37;;;;;;;9.35;3.50;;;13.00;99.90;;;;;;5064352;28;20480;-77
2022/04/13 12:42:04;;;;;;;7.10;3.22;;;13.10;99.90;;;;;;5074532;28;20056;-77
2022/04/13 12:44:30;;;;;;;6.65;3.55;;;13.20;99.90;;;;;;5065019;28;20059;-77
2022/04/13 12:47:05;;;;;;;6.60;2.97;;;13.20;99.90;;;;;;5074113;28;20035;-77
2022/04/13 12:49:31;;;;;;;7.50;3.10;;;13.40;99.90;;;;;;5069734;28;20016;-77